sensor_id;sensor_type;location;lat;lon;timestamp;pressure;altitude;pressure_sealevel;temperature;humidity
58975;BME280;44751;52.236;5.178;2022-09-23T00:01:04;101678.38;;;9.75;100.00
58975;BME280;44751;52.236;5.178;2022-09-23T00:03:34;101672.13;;;9.75;100.00
58975;BME280;44751;52.236;5.178;2022-09-23T00:06:04;101667.09;;;9.80;100.00
58975;BME280;44751;52.236;5.178;2022-09-23T00:08:31;101667.44;;;9.77;100.00
58975;BME280;44751;52.236;5.178;2022-09-23T00:11:06;101665.28;;;9.80;100.00
58975;BME280;44751;52.236;5.178;2022-09-23T00:13:33;101680.13;;;9.85;100.00
58975;BME280;44751;52.236;5.178;2022-09-23T00:16:08;101663.09;;;9.84;100.00
58975;BME280;44751;52.236;5.178;2022-09-23T00:18:35;101663.97;;;9.85;100.00
58975;BME280;44751;52.236;5.178;2022-09-23T00:21:03;101662.72;;;9.79;100.00
58975;BME280;44751;52.236;5.178;2022-09-23T00:23:31;101667.66;;;9.84;100.00
58975;BME280;44751;52.236;5.178;2022-09-23T00:25:59;101674.13;;;9.91;100.00
58975;BME280;44751;52.236;5.178;2022-09-23T00:28:28;101662.78;;;9.87;100.00
58975;BME280;44751;52.236;5.178;2022-09-23T00:31:00;101649.25;;;9.79;100.00
58975;BME280;44751;52.236;5.178;2022-09-23T00:33:26;101649.47;;;9.86;100.00
58975;BME280;44751;52.236;5.178;2022-09-23T00:36:00;101655.34;;;9.81;100.00
58975;BME280;44751;52.236;5.178;2022-09-23T00:38:29;101656.31;;;9.80;100.00
58975;BME280;44751;52.236;5.178;2022-09-23T00:40:58;101653.97;;;9.77;100.00
58975;BME280;44751;52.236;5.178;2022-09-23T00:43:38;101642.31;;;9.76;100.00
58975;BME280;44751;52.236;5.178;2022-09-23T00:46:10;101640.63;;;9.75;100.00
58975;BME280;44751;52.236;5.178;2022-09-23T00:48:40;101635.41;;;9.74;100.00
58975;BME280;44751;52.236;5.178;2022-09-23T00:51:10;101631.31;;;9.69;100.00
58975;BME280;44751;52.236;5.178;2022-09-23T00:53:39;101634.25;;;9.76;100.00
58975;BME280;44751;52.236;5.178;2022-09-23T00:56:07;101635.31;;;9.65;100.00
58975;BME280;44751;52.236;5.178;2022-09-23T00:58:38;101634.38;;;9.56;100.00
58975;BME280;44751;52.236;5.178;2022-09-23T01:01:06;101635.00;;;9.50;100.00
58975;BME280;44751;52.236;5.178;2022-09-23T01:03:33;101628.53;;;9.43;100.00
58975;BME280;44751;52.236;5.178;2022-09-23T01:06:00;101635.38;;;9.37;100.00
58975;BME280;44751;52.236;5.178;2022-09-23T01:08:28;101630.06;;;9.46;100.00
58975;BME280;44751;52.236;5.178;2022-09-23T01:11:00;101629.69;;;9.40;100.00
58975;BME280;44751;52.236;5.178;2022-09-23T01:13:51;101619.31;;;9.46;100.00
58975;BME280;44751;52.236;5.178;2022-09-23T01:22:16;101631.97;;;9.35;100.00
58975;BME280;44751;52.236;5.178;2022-09-23T01:25:03;101623.44;;;9.40;100.00
58975;BME280;44751;52.236;5.178;2022-09-23T01:27:39;101616.47;;;9.47;100.00
58975;BME280;44751;52.236;5.178;2022-09-23T01:30:17;101612.16;;;9.36;100.00
58975;BME280;44751;52.236;5.178;2022-09-23T01:35:33;101616.38;;;9.39;100.00
58975;BME280;44751;52.236;5.178;2022-09-23T01:45:46;101601.78;;;9.13;100.00
58975;BME280;44751;52.236;5.178;2022-09-23T01:48:20;101607.13;;;9.23;100.00
58975;BME280;44751;52.236;5.178;2022-09-23T01:50:54;101615.41;;;9.12;100.00
58975;BME280;44751;52.236;5.178;2022-09-23T01:53:38;101603.94;;;9.10;100.00
58975;BME280;44751;52.236;5.178;2022-09-23T01:56:14;101596.84;;;9.09;100.00
58975;BME280;44751;52.236;5.178;2022-09-23T02:01:20;101597.75;;;9.27;100.00
58975;BME280;44751;52.236;5.178;2022-09-23T02:04:07;101600.97;;;9.31;100.00
58975;BME280;44751;52.236;5.178;2022-09-23T02:06:40;101590.81;;;9.25;100.00
58975;BME280;44751;52.236;5.178;2022-09-23T02:09:14;101594.34;;;9.25;100.00
58975;BME280;44751;52.236;5.178;2022-09-23T02:11:42;101588.72;;;9.19;100.00
58975;BME280;44751;52.236;5.178;2022-09-23T02:14:22;101589.09;;;9.24;100.00
58975;BME280;44751;52.236;5.178;2022-09-23T02:16:51;101573.50;;;9.09;100.00
58975;BME280;44751;52.236;5.178;2022-09-23T02:22:22;101581.19;;;9.22;100.00
58975;BME280;44751;52.236;5.178;2022-09-23T02:24:51;101572.88;;;9.15;100.00
58975;BME280;44751;52.236;5.178;2022-09-23T02:27:31;101566.81;;;9.13;100.00
58975;BME280;44751;52.236;5.178;2022-09-23T02:30:10;101560.03;;;9.09;100.00
58975;BME280;44751;52.236;5.178;2022-09-23T02:32:55;101558.34;;;9.08;100.00
58975;BME280;44751;52.236;5.178;2022-09-23T02:35:30;101565.84;;;9.04;100.00
58975;BME280;44751;52.236;5.178;2022-09-23T02:41:08;101566.63;;;8.97;100.00
58975;BME280;44751;52.236;5.178;2022-09-23T02:46:13;101547.28;;;8.83;100.00
58975;BME280;44751;52.236;5.178;2022-09-23T02:48:55;101549.81;;;8.85;100.00
58975;BME280;44751;52.236;5.178;2022-09-23T02:51:27;101535.53;;;8.84;100.00
58975;BME280;44751;52.236;5.178;2022-09-23T02:53:55;101543.75;;;8.83;100.00
58975;BME280;44751;52.236;5.178;2022-09-23T02:56:23;101542.91;;;8.82;100.00
58975;BME280;44751;52.236;5.178;2022-09-23T02:58:53;101532.91;;;8.74;100.00
58975;BME280;44751;52.236;5.178;2022-09-23T03:09:30;101528.84;;;8.88;100.00
58975;BME280;44751;52.236;5.178;2022-09-23T03:12:24;101541.75;;;8.85;100.00
58975;BME280;44751;52.236;5.178;2022-09-23T03:18:14;101531.69;;;8.87;100.00
58975;BME280;44751;52.236;5.178;2022-09-23T03:20:52;101533.22;;;8.89;100.00
58975;BME280;44751;52.236;5.178;2022-09-23T03:23:34;101539.06;;;8.85;100.00
58975;BME280;44751;52.236;5.178;2022-09-23T03:26:08;101534.25;;;8.88;100.00
58975;BME280;44751;52.236;5.178;2022-09-23T03:28:38;101518.25;;;8.87;100.00
58975;BME280;44751;52.236;5.178;2022-09-23T03:31:07;101519.25;;;8.86;100.00
58975;BME280;44751;52.236;5.178;2022-09-23T03:33:36;101518.63;;;8.92;100.00
58975;BME280;44751;52.236;5.178;2022-09-23T03:36:08;101505.47;;;8.89;100.00
58975;BME280;44751;52.236;5.178;2022-09-23T03:39:09;101514.78;;;8.95;100.00
58975;BME280;44751;52.236;5.178;2022-09-23T03:41:43;101517.75;;;8.91;100.00
58975;BME280;44751;52.236;5.178;2022-09-23T03:44:24;101513.63;;;8.97;100.00
58975;BME280;44751;52.236;5.178;2022-09-23T03:46:53;101508.25;;;8.97;100.00
58975;BME280;44751;52.236;5.178;2022-09-23T03:49:38;101503.41;;;9.01;100.00
58975;BME280;44751;52.236;5.178;2022-09-23T03:52:05;101506.19;;;9.09;100.00
58975;BME280;44751;52.236;5.178;2022-09-23T03:54:32;101496.56;;;9.07;100.00
58975;BME280;44751;52.236;5.178;2022-09-23T03:57:00;101497.81;;;9.12;100.00
58975;BME280;44751;52.236;5.178;2022-09-23T03:59:27;101494.25;;;9.12;100.00
58975;BME280;44751;52.236;5.178;2022-09-23T04:01:58;101490.41;;;9.14;100.00
58975;BME280;44751;52.236;5.178;2022-09-23T04:04:25;101488.44;;;9.16;100.00
58975;BME280;44751;52.236;5.178;2022-09-23T04:06:54;101485.31;;;9.29;100.00
58975;BME280;44751;52.236;5.178;2022-09-23T04:09:23;101482.41;;;9.23;100.00
58975;BME280;44751;52.236;5.178;2022-09-23T04:11:51;101484.66;;;9.27;100.00
58975;BME280;44751;52.236;5.178;2022-09-23T04:14:19;101481.66;;;9.30;100.00
58975;BME280;44751;52.236;5.178;2022-09-23T04:16:47;101484.88;;;9.34;100.00
58975;BME280;44751;52.236;5.178;2022-09-23T04:19:14;101491.63;;;9.38;100.00
58975;BME280;44751;52.236;5.178;2022-09-23T04:21:44;101486.09;;;9.40;100.00
58975;BME280;44751;52.236;5.178;2022-09-23T04:24:15;101475.31;;;9.40;100.00
58975;BME280;44751;52.236;5.178;2022-09-23T04:26:43;101477.72;;;9.43;100.00
58975;BME280;44751;52.236;5.178;2022-09-23T04:29:09;101482.25;;;9.42;100.00
58975;BME280;44751;52.236;5.178;2022-09-23T04:31:36;101476.00;;;9.42;100.00
58975;BME280;44751;52.236;5.178;2022-09-23T04:34:03;101472.31;;;9.43;100.00
58975;BME280;44751;52.236;5.178;2022-09-23T04:36:34;101475.53;;;9.47;100.00
58975;BME280;44751;52.236;5.178;2022-09-23T04:39:00;101472.38;;;9.51;100.00
58975;BME280;44751;52.236;5.178;2022-09-23T04:41:27;101484.03;;;9.60;100.00
58975;BME280;44751;52.236;5.178;2022-09-23T04:43:53;101479.06;;;9.65;100.00
58975;BME280;44751;52.236;5.178;2022-09-23T04:46:21;101466.03;;;9.61;100.00
58975;BME280;44751;52.236;5.178;2022-09-23T04:48:50;101467.22;;;9.58;100.00
58975;BME280;44751;52.236;5.178;2022-09-23T04:51:20;101473.44;;;9.59;100.00
58975;BME280;44751;52.236;5.178;2022-09-23T04:53:48;101479.22;;;9.64;100.00
58975;BME280;44751;52.236;5.178;2022-09-23T04:56:23;101483.06;;;9.61;100.00
58975;BME280;44751;52.236;5.178;2022-09-23T04:58:50;101489.53;;;9.68;100.00
58975;BME280;44751;52.236;5.178;2022-09-23T05:01:20;101480.75;;;9.66;100.00
58975;BME280;44751;52.236;5.178;2022-09-23T05:03:49;101483.94;;;9.70;100.00
58975;BME280;44751;52.236;5.178;2022-09-23T05:06:19;101491.41;;;9.76;100.00
58975;BME280;44751;52.236;5.178;2022-09-23T05:08:56;101482.31;;;9.77;100.00
58975;BME280;44751;52.236;5.178;2022-09-23T05:11:24;101482.81;;;9.73;100.00
58975;BME280;44751;52.236;5.178;2022-09-23T05:13:56;101481.97;;;9.72;100.00
58975;BME280;44751;52.236;5.178;2022-09-23T05:16:27;101474.88;;;9.71;100.00
58975;BME280;44751;52.236;5.178;2022-09-23T05:19:05;101475.09;;;9.78;100.00
58975;BME280;44751;52.236;5.178;2022-09-23T05:21:35;101476.56;;;9.72;100.00
58975;BME280;44751;52.236;5.178;2022-09-23T06:36:22;101480.28;;;10.92;100.00
58975;BME280;44751;52.236;5.178;2022-09-23T06:38:51;101489.44;;;11.00;100.00
58975;BME280;44751;52.236;5.178;2022-09-23T06:41:18;101480.84;;;11.13;100.00
58975;BME280;44751;52.236;5.178;2022-09-23T06:43:45;101481.88;;;11.20;100.00
58975;BME280;44751;52.236;5.178;2022-09-23T06:46:14;101467.50;;;11.28;100.00
58975;BME280;44751;52.236;5.178;2022-09-23T06:48:44;101478.00;;;11.31;100.00
58975;BME280;44751;52.236;5.178;2022-09-23T06:51:16;101470.22;;;11.44;100.00
58975;BME280;44751;52.236;5.178;2022-09-23T06:53:48;101481.69;;;11.46;100.00
58975;BME280;44751;52.236;5.178;2022-09-23T06:56:15;101480.53;;;11.41;100.00
58975;BME280;44751;52.236;5.178;2022-09-23T06:58:43;101484.03;;;11.49;100.00
58975;BME280;44751;52.236;5.178;2022-09-23T07:01:12;101475.94;;;11.66;100.00
58975;BME280;44751;52.236;5.178;2022-09-23T07:03:41;101485.03;;;11.65;100.00
58975;BME280;44751;52.236;5.178;2022-09-23T07:06:08;101487.41;;;11.77;100.00
58975;BME280;44751;52.236;5.178;2022-09-23T07:08:34;101479.78;;;11.80;100.00
58975;BME280;44751;52.236;5.178;2022-09-23T07:11:03;101492.94;;;11.92;100.00
58975;BME280;44751;52.236;5.178;2022-09-23T07:13:30;101475.00;;;11.99;100.00
58975;BME280;44751;52.236;5.178;2022-09-23T07:15:58;101477.38;;;12.02;100.00
58975;BME280;44751;52.236;5.178;2022-09-23T07:18:28;101473.81;;;12.01;100.00
58975;BME280;44751;52.236;5.178;2022-09-23T07:20:55;101477.03;;;12.13;100.00
58975;BME280;44751;52.236;5.178;2022-09-23T07:23:24;101475.81;;;12.24;100.00
58975;BME280;44751;52.236;5.178;2022-09-23T07:25:51;101478.44;;;12.41;100.00
58975;BME280;44751;52.236;5.178;2022-09-23T07:28:18;101484.59;;;12.35;100.00
58975;BME280;44751;52.236;5.178;2022-09-23T07:30:46;101484.03;;;12.39;100.00
58975;BME280;44751;52.236;5.178;2022-09-23T07:33:12;101483.47;;;12.52;100.00
58975;BME280;44751;52.236;5.178;2022-09-23T07:35:40;101476.63;;;12.65;100.00
58975;BME280;44751;52.236;5.178;2022-09-23T07:38:09;101476.81;;;12.63;100.00
58975;BME280;44751;52.236;5.178;2022-09-23T07:40:37;101477.56;;;12.81;100.00
58975;BME280;44751;52.236;5.178;2022-09-23T07:43:05;101479.53;;;12.87;100.00
58975;BME280;44751;52.236;5.178;2022-09-23T07:45:32;101484.09;;;12.95;100.00
58975;BME280;44751;52.236;5.178;2022-09-23T07:48:00;101469.09;;;13.07;100.00
58975;BME280;44751;52.236;5.178;2022-09-23T07:50:27;101487.63;;;13.42;100.00
58975;BME280;44751;52.236;5.178;2022-09-23T07:52:55;101493.34;;;13.71;100.00
58975;BME280;44751;52.236;5.178;2022-09-23T07:55:22;101481.38;;;13.80;100.00
58975;BME280;44751;52.236;5.178;2022-09-23T07:57:49;101489.25;;;14.05;100.00
58975;BME280;44751;52.236;5.178;2022-09-23T08:00:15;101482.78;;;14.36;100.00
58975;BME280;44751;52.236;5.178;2022-09-23T08:02:42;101471.25;;;14.34;100.00
58975;BME280;44751;52.236;5.178;2022-09-23T08:05:09;101474.91;;;13.81;100.00
58975;BME280;44751;52.236;5.178;2022-09-23T08:07:35;101481.09;;;13.75;100.00
58975;BME280;44751;52.236;5.178;2022-09-23T08:10:03;101474.03;;;13.65;100.00
58975;BME280;44751;52.236;5.178;2022-09-23T08:12:29;101480.41;;;13.73;100.00
58975;BME280;44751;52.236;5.178;2022-09-23T08:14:56;101483.91;;;13.81;100.00
58975;BME280;44751;52.236;5.178;2022-09-23T08:17:28;101486.06;;;13.86;100.00
58975;BME280;44751;52.236;5.178;2022-09-23T08:19:55;101481.88;;;13.99;100.00
58975;BME280;44751;52.236;5.178;2022-09-23T08:22:21;101491.13;;;14.04;100.00
58975;BME280;44751;52.236;5.178;2022-09-23T08:24:48;101489.03;;;14.22;100.00
58975;BME280;44751;52.236;5.178;2022-09-23T08:27:14;101486.63;;;14.27;100.00
58975;BME280;44751;52.236;5.178;2022-09-23T08:29:45;101488.41;;;14.19;100.00
58975;BME280;44751;52.236;5.178;2022-09-23T08:32:12;101484.53;;;14.44;100.00
58975;BME280;44751;52.236;5.178;2022-09-23T08:34:38;101493.69;;;14.58;100.00
58975;BME280;44751;52.236;5.178;2022-09-23T08:37:09;101487.75;;;14.69;100.00
58975;BME280;44751;52.236;5.178;2022-09-23T08:39:36;101484.44;;;14.52;100.00
58975;BME280;44751;52.236;5.178;2022-09-23T08:42:15;101485.56;;;14.43;100.00
58975;BME280;44751;52.236;5.178;2022-09-23T08:44:58;101486.31;;;14.52;100.00
58975;BME280;44751;52.236;5.178;2022-09-23T08:48:11;101480.28;;;14.71;100.00
58975;BME280;44751;52.236;5.178;2022-09-23T08:50:54;101483.28;;;14.77;100.00
58975;BME280;44751;52.236;5.178;2022-09-23T08:53:27;101475.13;;;14.77;100.00
58975;BME280;44751;52.236;5.178;2022-09-23T08:55:57;101478.19;;;14.89;100.00
58975;BME280;44751;52.236;5.178;2022-09-23T09:03:50;101481.69;;;15.04;100.00
58975;BME280;44751;52.236;5.178;2022-09-23T09:06:24;101477.53;;;15.08;100.00
58975;BME280;44751;52.236;5.178;2022-09-23T09:09:00;101483.56;;;15.26;100.00
58975;BME280;44751;52.236;5.178;2022-09-23T09:11:32;101484.38;;;15.19;100.00
58975;BME280;44751;52.236;5.178;2022-09-23T09:17:17;101480.81;;;15.47;100.00
58975;BME280;44751;52.236;5.178;2022-09-23T09:19:55;101486.44;;;15.68;100.00
58975;BME280;44751;52.236;5.178;2022-09-23T09:22:55;101479.63;;;15.85;100.00
58975;BME280;44751;52.236;5.178;2022-09-23T09:25:32;101481.75;;;15.90;100.00
58975;BME280;44751;52.236;5.178;2022-09-23T09:28:10;101474.72;;;15.96;100.00
58975;BME280;44751;52.236;5.178;2022-09-23T09:30:39;101469.44;;;15.94;100.00
58975;BME280;44751;52.236;5.178;2022-09-23T09:33:12;101479.75;;;15.99;100.00
58975;BME280;44751;52.236;5.178;2022-09-23T09:38:33;101476.63;;;15.73;100.00
58975;BME280;44751;52.236;5.178;2022-09-23T09:41:10;101478.47;;;15.66;100.00
58975;BME280;44751;52.236;5.178;2022-09-23T09:43:39;101479.59;;;15.79;100.00
58975;BME280;44751;52.236;5.178;2022-09-23T09:49:01;101481.88;;;15.75;100.00
58975;BME280;44751;52.236;5.178;2022-09-23T09:51:28;101468.72;;;15.50;100.00
58975;BME280;44751;52.236;5.178;2022-09-23T09:54:22;101474.41;;;15.55;100.00
58975;BME280;44751;52.236;5.178;2022-09-23T09:56:52;101464.75;;;15.53;100.00
58975;BME280;44751;52.236;5.178;2022-09-23T09:59:25;101460.50;;;15.43;100.00
58975;BME280;44751;52.236;5.178;2022-09-23T10:02:13;101468.34;;;15.31;100.00
58975;BME280;44751;52.236;5.178;2022-09-23T10:04:55;101465.19;;;15.28;100.00
58975;BME280;44751;52.236;5.178;2022-09-23T10:07:28;101451.00;;;15.32;100.00
58975;BME280;44751;52.236;5.178;2022-09-23T10:10:16;101447.69;;;15.37;100.00
58975;BME280;44751;52.236;5.178;2022-09-23T10:12:46;101448.25;;;15.54;100.00
58975;BME280;44751;52.236;5.178;2022-09-23T10:17:52;101449.38;;;15.67;100.00
58975;BME280;44751;52.236;5.178;2022-09-23T10:20:19;101444.19;;;15.72;100.00
58975;BME280;44751;52.236;5.178;2022-09-23T10:22:49;101437.69;;;15.73;100.00
58975;BME280;44751;52.236;5.178;2022-09-23T10:25:19;101441.34;;;15.87;100.00
58975;BME280;44751;52.236;5.178;2022-09-23T10:27:46;101441.09;;;15.82;100.00
58975;BME280;44751;52.236;5.178;2022-09-23T10:30:26;101436.09;;;15.85;100.00
58975;BME280;44751;52.236;5.178;2022-09-23T10:32:54;101438.97;;;16.06;100.00
58975;BME280;44751;52.236;5.178;2022-09-23T10:35:23;101438.22;;;15.90;100.00
58975;BME280;44751;52.236;5.178;2022-09-23T10:37:51;101441.75;;;16.19;100.00
58975;BME280;44751;52.236;5.178;2022-09-23T10:43:26;101442.00;;;16.24;100.00
58975;BME280;44751;52.236;5.178;2022-09-23T10:46:19;101449.28;;;16.17;100.00
58975;BME280;44751;52.236;5.178;2022-09-23T10:49:27;101454.09;;;16.15;100.00
58975;BME280;44751;52.236;5.178;2022-09-23T10:52:22;101452.47;;;16.27;100.00
58975;BME280;44751;52.236;5.178;2022-09-23T11:00:21;101442.28;;;16.50;100.00
58975;BME280;44751;52.236;5.178;2022-09-23T11:14:08;101443.78;;;16.59;100.00
58975;BME280;44751;52.236;5.178;2022-09-23T11:28:01;101436.31;;;16.88;100.00
58975;BME280;44751;52.236;5.178;2022-09-23T11:33:18;101434.00;;;16.92;100.00
58975;BME280;44751;52.236;5.178;2022-09-23T11:35:58;101423.53;;;16.96;100.00
58975;BME280;44751;52.236;5.178;2022-09-23T11:38:36;101430.00;;;16.95;100.00
58975;BME280;44751;52.236;5.178;2022-09-23T11:41:27;101429.59;;;16.98;100.00
58975;BME280;44751;52.236;5.178;2022-09-23T11:44:27;101422.88;;;16.87;98.49
58975;BME280;44751;52.236;5.178;2022-09-23T11:47:20;101430.44;;;16.85;98.43
58975;BME280;44751;52.236;5.178;2022-09-23T11:49:56;101430.66;;;16.90;100.00
58975;BME280;44751;52.236;5.178;2022-09-23T11:52:31;101417.84;;;16.90;100.00
58975;BME280;44751;52.236;5.178;2022-09-23T11:55:15;101413.66;;;16.95;100.00
58975;BME280;44751;52.236;5.178;2022-09-23T11:57:48;101418.09;;;17.02;100.00
58975;BME280;44751;52.236;5.178;2022-09-23T12:05:36;101406.97;;;17.04;99.62
58975;BME280;44751;52.236;5.178;2022-09-23T12:13:33;101406.34;;;17.36;95.69
58975;BME280;44751;52.236;5.178;2022-09-23T12:24:26;101391.25;;;17.13;92.80
58975;BME280;44751;52.236;5.178;2022-09-23T12:27:02;101391.25;;;17.06;94.82
58975;BME280;44751;52.236;5.178;2022-09-23T12:29:31;101385.81;;;17.06;93.52
58975;BME280;44751;52.236;5.178;2022-09-23T12:32:00;101382.00;;;17.00;93.69
58975;BME280;44751;52.236;5.178;2022-09-23T12:34:41;101380.16;;;17.08;94.49
58975;BME280;44751;52.236;5.178;2022-09-23T12:37:22;101383.09;;;17.13;93.71
58975;BME280;44751;52.236;5.178;2022-09-23T12:39:49;101387.91;;;17.04;91.12
58975;BME280;44751;52.236;5.178;2022-09-23T12:42:21;101370.50;;;16.91;93.01
58975;BME280;44751;52.236;5.178;2022-09-23T12:44:49;101380.59;;;17.11;91.94
58975;BME280;44751;52.236;5.178;2022-09-23T12:49:46;101379.34;;;17.07;93.79
58975;BME280;44751;52.236;5.178;2022-09-23T12:54:45;101377.59;;;16.99;93.93
58975;BME280;44751;52.236;5.178;2022-09-23T13:07:57;101372.59;;;17.03;93.57
58975;BME280;44751;52.236;5.178;2022-09-23T13:10:30;101376.59;;;17.07;93.94
58975;BME280;44751;52.236;5.178;2022-09-23T13:12:57;101374.25;;;17.04;93.77
58975;BME280;44751;52.236;5.178;2022-09-23T13:15:32;101365.66;;;17.00;93.61
58975;BME280;44751;52.236;5.178;2022-09-23T13:20:54;101376.59;;;17.14;93.91
58975;BME280;44751;52.236;5.178;2022-09-23T13:25:55;101347.63;;;17.13;95.26
58975;BME280;44751;52.236;5.178;2022-09-23T13:30:52;101340.09;;;17.35;96.07
58975;BME280;44751;52.236;5.178;2022-09-23T13:33:28;101342.81;;;17.35;95.25
58975;BME280;44751;52.236;5.178;2022-09-23T13:35:59;101352.00;;;17.48;97.49
58975;BME280;44751;52.236;5.178;2022-09-23T13:38:30;101351.16;;;17.54;92.93
58975;BME280;44751;52.236;5.178;2022-09-23T13:41:05;101350.03;;;17.75;95.03
58975;BME280;44751;52.236;5.178;2022-09-23T13:43:51;101341.66;;;17.70;94.32
58975;BME280;44751;52.236;5.178;2022-09-23T13:46:21;101337.06;;;17.64;95.40
58975;BME280;44751;52.236;5.178;2022-09-23T13:48:53;101350.34;;;17.40;92.87
58975;BME280;44751;52.236;5.178;2022-09-23T13:51:29;101340.06;;;17.42;96.47
58975;BME280;44751;52.236;5.178;2022-09-23T13:53:58;101342.81;;;17.35;98.90
58975;BME280;44751;52.236;5.178;2022-09-23T13:56:27;101341.75;;;17.23;96.55
58975;BME280;44751;52.236;5.178;2022-09-23T14:01:43;101339.25;;;17.01;98.25
58975;BME280;44751;52.236;5.178;2022-09-23T14:04:24;101338.63;;;17.19;100.00
58975;BME280;44751;52.236;5.178;2022-09-23T14:06:54;101346.19;;;17.17;98.82
58975;BME280;44751;52.236;5.178;2022-09-23T14:09:23;101341.34;;;17.19;98.76
58975;BME280;44751;52.236;5.178;2022-09-23T14:11:56;101334.44;;;17.16;98.51
58975;BME280;44751;52.236;5.178;2022-09-23T14:14:27;101328.75;;;17.25;98.10
58975;BME280;44751;52.236;5.178;2022-09-23T14:16:55;101326.66;;;17.34;99.80
58975;BME280;44751;52.236;5.178;2022-09-23T14:19:24;101326.44;;;17.42;99.76
58975;BME280;44751;52.236;5.178;2022-09-23T14:21:54;101322.16;;;17.60;99.21
58975;BME280;44751;52.236;5.178;2022-09-23T14:24:28;101311.19;;;17.73;98.79
58975;BME280;44751;52.236;5.178;2022-09-23T14:26:59;101317.53;;;17.67;98.31
58975;BME280;44751;52.236;5.178;2022-09-23T14:29:32;101316.06;;;17.64;100.00
58975;BME280;44751;52.236;5.178;2022-09-23T14:32:02;101310.59;;;17.71;98.41
58975;BME280;44751;52.236;5.178;2022-09-23T14:34:39;101313.97;;;17.60;99.38
58975;BME280;44751;52.236;5.178;2022-09-23T14:37:24;101312.97;;;17.47;100.00
58975;BME280;44751;52.236;5.178;2022-09-23T14:42:48;101301.22;;;17.47;100.00
58975;BME280;44751;52.236;5.178;2022-09-23T14:45:25;101295.38;;;17.43;100.00
58975;BME280;44751;52.236;5.178;2022-09-23T14:47:58;101298.31;;;17.41;100.00
58975;BME280;44751;52.236;5.178;2022-09-23T14:50:26;101300.84;;;17.36;100.00
58975;BME280;44751;52.236;5.178;2022-09-23T14:53:35;101289.53;;;17.26;100.00
58975;BME280;44751;52.236;5.178;2022-09-23T15:03:59;101279.28;;;17.21;100.00
58975;BME280;44751;52.236;5.178;2022-09-23T15:06:26;101283.66;;;17.29;100.00
58975;BME280;44751;52.236;5.178;2022-09-23T15:08:54;101278.59;;;17.33;100.00
58975;BME280;44751;52.236;5.178;2022-09-23T15:11:21;101283.66;;;17.29;100.00
58975;BME280;44751;52.236;5.178;2022-09-23T15:13:48;101288.28;;;17.22;100.00
58975;BME280;44751;52.236;5.178;2022-09-23T15:16:37;101277.59;;;17.13;100.00
58975;BME280;44751;52.236;5.178;2022-09-23T15:19:04;101273.59;;;17.16;100.00
58975;BME280;44751;52.236;5.178;2022-09-23T15:21:36;101273.59;;;17.16;100.00
58975;BME280;44751;52.236;5.178;2022-09-23T15:24:41;101272.97;;;17.21;100.00
58975;BME280;44751;52.236;5.178;2022-09-23T15:27:32;101277.19;;;17.16;100.00
58975;BME280;44751;52.236;5.178;2022-09-23T15:30:15;101278.22;;;17.02;100.00
58975;BME280;44751;52.236;5.178;2022-09-23T15:32:47;101282.63;;;17.03;100.00
58975;BME280;44751;52.236;5.178;2022-09-23T15:35:19;101279.69;;;16.98;100.00
58975;BME280;44751;52.236;5.178;2022-09-23T15:37:48;101275.69;;;17.00;100.00
58975;BME280;44751;52.236;5.178;2022-09-23T15:40:33;101277.16;;;16.96;100.00
58975;BME280;44751;52.236;5.178;2022-09-23T15:43:09;101273.00;;;16.87;100.00
58975;BME280;44751;52.236;5.178;2022-09-23T15:45:44;101271.09;;;16.81;100.00
58975;BME280;44751;52.236;5.178;2022-09-23T15:48:14;101274.91;;;16.66;100.00
58975;BME280;44751;52.236;5.178;2022-09-23T15:50:42;101262.13;;;16.73;100.00
58975;BME280;44751;52.236;5.178;2022-09-23T15:53:21;101273.63;;;16.75;100.00
58975;BME280;44751;52.236;5.178;2022-09-23T15:55:49;101267.56;;;16.73;100.00
58975;BME280;44751;52.236;5.178;2022-09-23T15:58:22;101272.19;;;16.66;100.00
58975;BME280;44751;52.236;5.178;2022-09-23T16:00:53;101272.59;;;16.63;100.00
58975;BME280;44751;52.236;5.178;2022-09-23T16:03:24;101266.72;;;16.59;100.00
58975;BME280;44751;52.236;5.178;2022-09-23T16:05:54;101271.75;;;16.49;100.00
58975;BME280;44751;52.236;5.178;2022-09-23T16:08:24;101266.50;;;16.41;100.00
58975;BME280;44751;52.236;5.178;2022-09-23T16:10:52;101269.63;;;16.44;100.00
58975;BME280;44751;52.236;5.178;2022-09-23T16:13:19;101271.75;;;16.42;100.00
58975;BME280;44751;52.236;5.178;2022-09-23T16:15:47;101267.56;;;16.39;100.00
58975;BME280;44751;52.236;5.178;2022-09-23T16:18:13;101261.66;;;16.29;100.00
58975;BME280;44751;52.236;5.178;2022-09-23T16:20:42;101270.44;;;16.18;100.00
58975;BME280;44751;52.236;5.178;2022-09-23T16:23:22;101269.81;;;16.09;100.00
58975;BME280;44751;52.236;5.178;2022-09-23T16:26:24;101268.97;;;16.02;100.00
58975;BME280;44751;52.236;5.178;2022-09-23T16:28:53;101269.56;;;16.04;100.00
58975;BME280;44751;52.236;5.178;2022-09-23T16:31:22;101263.88;;;15.92;100.00
58975;BME280;44751;52.236;5.178;2022-09-23T16:33:53;101265.81;;;15.98;100.00
58975;BME280;44751;52.236;5.178;2022-09-23T16:36:23;101269.31;;;15.92;100.00
58975;BME280;44751;52.236;5.178;2022-09-23T16:39:10;101268.47;;;15.91;100.00
58975;BME280;44751;52.236;5.178;2022-09-23T16:41:38;101274.13;;;15.90;100.00
58975;BME280;44751;52.236;5.178;2022-09-23T16:44:23;101270.75;;;15.81;100.00
58975;BME280;44751;52.236;5.178;2022-09-23T16:46:50;101274.47;;;15.73;100.00
58975;BME280;44751;52.236;5.178;2022-09-23T16:49:17;101277.00;;;15.74;100.00
58975;BME280;44751;52.236;5.178;2022-09-23T16:51:43;101275.72;;;15.70;100.00